createdAt,value
2022-08-03T00:01:49.885Z,44.74
2022-08-03T00:04:16.655Z,44.85
2022-08-03T00:06:43.521Z,44.75
2022-08-03T00:09:10.420Z,45.06
2022-08-03T00:11:37.578Z,45.08
2022-08-03T00:14:05.901Z,45.09
2022-08-03T00:16:32.595Z,44.83
2022-08-03T00:19:00.771Z,44.77
2022-08-03T00:21:29.310Z,44.63
2022-08-03T00:23:56.077Z,44.95
2022-08-03T00:26:22.757Z,44.77
2022-08-03T00:28:50.307Z,45.43
2022-08-03T00:31:25.519Z,45.15
2022-08-03T00:34:04.220Z,45.31
2022-08-03T00:36:31.014Z,45.13
2022-08-03T00:38:57.627Z,45.41
2022-08-03T00:41:24.301Z,45.30
2022-08-03T00:43:51.113Z,45.28
2022-08-03T00:46:21.629Z,45.61
2022-08-03T00:48:53.424Z,45.77
2022-08-03T00:51:24.014Z,46.18
2022-08-03T00:53:51.107Z,45.67
2022-08-03T00:56:18.533Z,46.06
2022-08-03T00:58:46.964Z,46.51
2022-08-03T01:01:14.923Z,45.99
2022-08-03T01:03:41.889Z,46.19
2022-08-03T01:06:23.106Z,46.52
2022-08-03T01:09:08.332Z,46.13
2022-08-03T01:11:59.866Z,46.82
2022-08-03T01:14:34.732Z,46.99
2022-08-03T01:17:54.005Z,45.86
2022-08-03T01:20:24.260Z,46.58
2022-08-03T01:23:29.020Z,46.26
2022-08-03T01:26:23.704Z,46.42
2022-08-03T01:29:09.832Z,47.22
2022-08-03T01:32:53.391Z,47.05
2022-08-03T01:34:35.606Z,46.94
2022-08-03T01:37:07.489Z,47.05
2022-08-03T01:39:38.259Z,46.83
2022-08-03T01:42:07.636Z,46.78
2022-08-03T01:44:38.607Z,47.04
2022-08-03T01:47:06.940Z,46.92
2022-08-03T01:49:38.833Z,47.34
2022-08-03T01:52:07.470Z,47.23
2022-08-03T01:54:43.410Z,47.42
2022-08-03T01:57:11.478Z,47.10
2022-08-03T01:59:40.398Z,47.66
2022-08-03T02:02:29.116Z,47.53
2022-08-03T02:04:58.791Z,47.49
2022-08-03T02:07:27.163Z,47.49
2022-08-03T02:09:55.687Z,47.37
2022-08-03T02:12:24.951Z,47.72
2022-08-03T02:14:51.891Z,47.60
2022-08-03T02:17:39.743Z,47.69
2022-08-03T02:20:09.086Z,48.01
2022-08-03T02:22:37.442Z,48.05
2022-08-03T02:25:04.257Z,47.77
2022-08-03T02:27:34.821Z,47.92
2022-08-03T02:30:08.953Z,48.53
2022-08-03T02:32:41.427Z,48.09
2022-08-03T02:35:12.597Z,48.45
2022-08-03T02:37:49.829Z,48.81
2022-08-03T02:40:19.262Z,48.39
2022-08-03T02:42:49.505Z,48.50
2022-08-03T02:45:18.412Z,48.39
2022-08-03T02:47:54.100Z,48.65
2022-08-03T02:50:23.042Z,48.46
2022-08-03T02:52:51.238Z,48.38
2022-08-03T02:55:19.748Z,48.69
2022-08-03T02:57:47.472Z,48.78
2022-08-03T03:00:27.465Z,48.47
2022-08-03T03:02:58.863Z,48.96
2022-08-03T03:05:55.377Z,48.64
2022-08-03T03:08:17.698Z,48.93
2022-08-03T03:10:46.603Z,48.88
2022-08-03T03:13:16.972Z,49.10
2022-08-03T03:15:45.891Z,49.09
2022-08-03T03:18:17.755Z,49.31
2022-08-03T03:20:48.091Z,49.08
2022-08-03T03:23:15.525Z,49.10
2022-08-03T03:25:42.771Z,48.91
2022-08-03T03:28:10.835Z,49.28
2022-08-03T03:30:37.557Z,49.28
2022-08-03T03:33:04.289Z,49.36
2022-08-03T03:35:31.488Z,49.44
2022-08-03T03:38:05.528Z,49.54
2022-08-03T03:40:32.215Z,49.69
2022-08-03T03:42:58.928Z,49.47
2022-08-03T03:45:26.818Z,49.93
2022-08-03T03:47:53.498Z,49.81
2022-08-03T03:50:22.448Z,49.95
2022-08-03T03:52:49.083Z,50.10
2022-08-03T03:55:17.622Z,50.20
2022-08-03T03:57:44.280Z,50.16
2022-08-03T04:00:12.900Z,50.47
2022-08-03T04:02:39.841Z,50.17
2022-08-03T04:05:26.863Z,50.29
2022-08-03T04:08:22.107Z,50.43
2022-08-03T04:11:13.023Z,50.82
2022-08-03T04:13:49.814Z,50.91
2022-08-03T04:16:20.760Z,50.89
2022-08-03T04:18:52.525Z,51.10
2022-08-03T04:21:21.136Z,50.81
2022-08-03T04:23:51.003Z,50.82
2022-08-03T04:26:27.549Z,51.75
2022-08-03T04:28:55.218Z,51.06
2022-08-03T04:31:24.594Z,51.12
2022-08-03T04:33:52.903Z,51.26
2022-08-03T04:36:26.349Z,51.79
2022-08-03T04:38:55.601Z,51.70
2022-08-03T04:41:24.965Z,51.60
2022-08-03T04:43:54.980Z,52.02
2022-08-03T04:46:26.180Z,51.88
2022-08-03T04:48:53.563Z,51.83
2022-08-03T04:51:20.968Z,51.95
2022-08-03T04:53:47.899Z,51.96
2022-08-03T04:56:14.510Z,51.87
2022-08-03T04:58:41.196Z,52.20
2022-08-03T05:01:07.926Z,52.09
2022-08-03T05:03:34.460Z,52.32
2022-08-03T05:06:09.511Z,52.08
2022-08-03T05:08:46.136Z,52.52
2022-08-03T05:11:17.832Z,52.12
2022-08-03T05:13:45.665Z,52.33
2022-08-03T05:16:14.008Z,52.48
2022-08-03T05:18:45.095Z,52.99
2022-08-03T05:21:17.082Z,52.65
2022-08-03T05:23:45.161Z,52.70
2022-08-03T05:26:12.187Z,52.53
2022-08-03T05:28:39.283Z,52.47
2022-08-03T05:31:14.890Z,52.55
2022-08-03T05:33:41.626Z,52.73
2022-08-03T05:36:08.243Z,52.74
2022-08-03T05:38:35.568Z,52.27
2022-08-03T05:41:23.196Z,53.24
2022-08-03T05:43:53.978Z,53.02
2022-08-03T05:46:21.968Z,52.99
2022-08-03T05:48:48.743Z,52.75
2022-08-03T05:51:15.469Z,53.15
2022-08-03T05:53:43.183Z,52.80
2022-08-03T05:56:13.714Z,53.03
2022-08-03T05:58:47.388Z,53.10
2022-08-03T06:01:16.075Z,53.31
2022-08-03T06:03:42.818Z,53.08
2022-08-03T06:06:09.651Z,52.93
2022-08-03T06:08:36.421Z,52.88
2022-08-03T06:11:03.742Z,53.09
2022-08-03T06:13:30.593Z,52.97
2022-08-03T06:15:57.409Z,52.99
2022-08-03T06:18:26.774Z,53.23
2022-08-03T06:20:54.306Z,53.22
2022-08-03T06:23:21.969Z,53.24
2022-08-03T06:25:48.725Z,53.25
2022-08-03T06:28:42.387Z,52.87
2022-08-03T06:31:03.600Z,52.97
2022-08-03T06:33:48.517Z,52.91
2022-08-03T06:36:20.137Z,52.66
2022-08-03T06:38:46.795Z,52.73
2022-08-03T06:41:13.605Z,52.66
2022-08-03T06:44:03.305Z,52.74
2022-08-03T06:46:26.746Z,52.78
2022-08-03T06:48:53.413Z,52.76
2022-08-03T06:51:20.190Z,52.93
2022-08-03T06:53:46.767Z,52.43
2022-08-03T06:56:13.353Z,52.38
2022-08-03T06:58:39.923Z,52.34
2022-08-03T07:01:06.615Z,52.61
2022-08-03T07:03:33.274Z,52.06
2022-08-03T07:06:00.001Z,52.13
2022-08-03T07:08:33.876Z,52.17
2022-08-03T07:11:01.374Z,52.23
2022-08-03T07:13:28.019Z,52.23
2022-08-03T07:15:56.145Z,51.90
2022-08-03T07:18:28.362Z,51.96
2022-08-03T07:20:57.462Z,52.18
2022-08-03T07:23:24.308Z,51.89
2022-08-03T07:25:51.000Z,51.78
2022-08-03T07:28:18.258Z,51.21
2022-08-03T07:30:44.982Z,51.55
2022-08-03T07:33:11.718Z,51.26
2022-08-03T07:35:38.746Z,50.99
2022-08-03T07:38:05.360Z,50.97
2022-08-03T07:40:32.234Z,51.14
2022-08-03T07:42:59.963Z,51.08
2022-08-03T07:45:26.922Z,50.72
2022-08-03T07:47:54.543Z,50.52
2022-08-03T07:50:22.204Z,50.47
2022-08-03T07:52:50.194Z,50.44
2022-08-03T07:55:19.252Z,50.27
2022-08-03T07:57:46.040Z,49.82
2022-08-03T08:00:17.990Z,50.09
2022-08-03T08:02:45.510Z,50.18
2022-08-03T08:05:12.698Z,49.77
2022-08-03T08:07:40.458Z,49.57
2022-08-03T08:10:10.109Z,49.26
2022-08-03T08:12:37.814Z,49.40
2022-08-03T08:15:05.934Z,49.38
2022-08-03T08:17:41.912Z,49.17
2022-08-03T08:20:28.329Z,48.61
2022-08-03T08:23:02.112Z,48.46
2022-08-03T08:25:31.135Z,48.21
2022-08-03T08:28:29.547Z,48.37
2022-08-03T08:30:47.149Z,48.29
2022-08-03T08:33:23.009Z,48.37
2022-08-03T08:35:51.651Z,48.24
2022-08-03T08:38:18.264Z,47.92
2022-08-03T08:40:45.328Z,47.60
2022-08-03T08:43:12.091Z,47.37
2022-08-03T08:45:38.773Z,47.03
2022-08-03T08:48:08.445Z,46.92
2022-08-03T08:50:37.598Z,46.52
2022-08-03T08:53:09.759Z,46.57
2022-08-03T08:55:59.082Z,46.65
2022-08-03T08:58:28.592Z,47.13
2022-08-03T09:00:55.670Z,47.35
2022-08-03T09:03:26.159Z,46.98
2022-08-03T09:05:56.670Z,46.63
2022-08-03T09:08:23.351Z,45.89
2022-08-03T09:10:49.943Z,45.48
2022-08-03T09:13:16.669Z,45.73
2022-08-03T09:16:00.682Z,45.68
2022-08-03T09:18:32.376Z,45.53
2022-08-03T09:21:33.694Z,45.00
2022-08-03T09:24:05.665Z,44.63
2022-08-03T09:26:35.734Z,44.80
2022-08-03T09:29:13.841Z,43.38
2022-08-03T09:31:44.187Z,44.01
2022-08-03T09:34:13.393Z,43.92
2022-08-03T09:36:50.341Z,43.59
2022-08-03T09:39:40.473Z,43.14
2022-08-03T09:42:14.835Z,43.60
2022-08-03T09:44:45.465Z,42.88
2022-08-03T09:47:14.290Z,43.22
2022-08-03T09:49:43.174Z,43.51
2022-08-03T09:52:38.827Z,43.95
2022-08-03T09:56:31.555Z,42.25
2022-08-03T09:58:06.246Z,42.39
2022-08-03T10:00:32.810Z,43.07
2022-08-03T10:03:05.510Z,42.60
2022-08-03T10:05:33.116Z,42.63
2022-08-03T10:07:59.669Z,42.94
2022-08-03T10:10:30.282Z,42.96
2022-08-03T10:13:00.313Z,42.68
2022-08-03T10:16:22.503Z,42.48
2022-08-03T10:18:14.442Z,42.20
2022-08-03T10:20:49.410Z,41.81
2022-08-03T10:23:18.238Z,42.02
2022-08-03T10:25:49.468Z,41.20
2022-08-03T10:28:18.862Z,41.72
2022-08-03T10:30:50.566Z,41.00
2022-08-03T10:33:50.689Z,40.41
2022-08-03T10:36:19.507Z,40.80
2022-08-03T10:38:53.162Z,40.90
2022-08-03T10:41:27.242Z,40.76
2022-08-03T10:44:03.587Z,40.05
2022-08-03T10:46:30.164Z,39.92
2022-08-03T10:48:57.738Z,39.75
2022-08-03T10:51:25.126Z,39.40
2022-08-03T10:53:54.723Z,39.65
2022-08-03T10:56:53.488Z,39.36
2022-08-03T10:59:46.307Z,39.86
2022-08-03T11:02:14.403Z,38.74
2022-08-03T11:04:42.903Z,38.00
2022-08-03T11:07:21.907Z,38.22
2022-08-03T11:09:51.117Z,37.89
2022-08-03T11:12:30.175Z,36.65
2022-08-03T11:15:00.974Z,35.96
2022-08-03T11:17:28.091Z,35.81
2022-08-03T11:19:57.550Z,35.14
2022-08-03T11:22:25.468Z,34.99
2022-08-03T11:24:54.276Z,34.86
2022-08-03T11:27:22.880Z,33.81
2022-08-03T11:30:08.741Z,34.76
2022-08-03T11:32:38.522Z,32.18
2022-08-03T11:35:21.853Z,33.04
2022-08-03T11:38:03.234Z,32.91
2022-08-03T11:40:42.137Z,31.99
2022-08-03T11:43:26.676Z,32.08
2022-08-03T11:46:04.549Z,30.93
2022-08-03T11:48:38.756Z,30.51
2022-08-03T11:51:07.862Z,29.94
2022-08-03T11:53:42.172Z,29.74
2022-08-03T11:56:12.499Z,29.09
2022-08-03T11:59:01.103Z,28.69
2022-08-03T12:01:35.152Z,27.70
2022-08-03T12:04:05.429Z,27.12
2022-08-03T12:06:52.490Z,27.42
2022-08-03T12:09:21.367Z,27.61
2022-08-03T12:11:51.084Z,27.76
2022-08-03T12:14:49.415Z,27.30
2022-08-03T12:17:15.028Z,27.75
2022-08-03T12:19:43.241Z,27.67
2022-08-03T12:22:09.915Z,27.08
2022-08-03T12:24:43.909Z,26.80
2022-08-03T12:27:10.578Z,26.76
2022-08-03T12:29:37.986Z,26.42
2022-08-03T12:32:04.947Z,26.76
2022-08-03T12:34:48.778Z,26.75
2022-08-03T12:37:23.375Z,25.48
2022-08-03T12:40:01.626Z,24.54
2022-08-03T12:42:35.510Z,24.57
2022-08-03T12:45:32.990Z,24.93
2022-08-03T12:48:02.155Z,24.00
2022-08-03T12:50:32.219Z,23.81
2022-08-03T12:53:00.467Z,23.52
2022-08-03T12:55:40.157Z,23.45
2022-08-03T12:58:38.715Z,23.59
2022-08-03T13:01:09.564Z,22.24
2022-08-03T13:03:50.332Z,22.44
2022-08-03T13:06:25.323Z,21.78
2022-08-03T13:09:06.298Z,21.55
2022-08-03T13:11:53.590Z,22.13
2022-08-03T13:14:20.580Z,22.38
2022-08-03T13:16:48.556Z,22.58
2022-08-03T13:19:16.061Z,21.39
2022-08-03T13:22:01.791Z,21.45
2022-08-03T13:24:31.485Z,21.57
2022-08-03T13:26:58.874Z,21.03
2022-08-03T13:29:25.458Z,20.55
2022-08-03T13:31:52.061Z,21.07
2022-08-03T13:34:23.028Z,20.09
2022-08-03T13:37:08.488Z,20.00
2022-08-03T13:39:58.354Z,19.71
2022-08-03T13:42:22.395Z,19.14
2022-08-03T13:44:48.952Z,19.56
2022-08-03T13:47:15.552Z,19.96
2022-08-03T13:49:42.146Z,19.89
2022-08-03T13:52:27.946Z,19.36
2022-08-03T13:54:54.734Z,19.00
2022-08-03T13:58:11.394Z,19.79
2022-08-03T14:00:09.046Z,19.29
2022-08-03T14:02:35.789Z,19.35
2022-08-03T14:05:02.376Z,19.54
2022-08-03T14:07:28.957Z,19.11
2022-08-03T14:09:55.585Z,18.62
2022-08-03T14:12:22.281Z,18.65
2022-08-03T14:14:48.809Z,19.35
2022-08-03T14:17:16.500Z,19.56
2022-08-03T14:19:53.324Z,18.91
2022-08-03T14:22:21.055Z,19.93
2022-08-03T14:24:47.618Z,19.82
2022-08-03T14:27:15.832Z,20.06
2022-08-03T14:29:42.359Z,20.17
2022-08-03T14:32:08.983Z,20.44
2022-08-03T14:34:37.428Z,20.39
2022-08-03T14:37:04.025Z,20.44
2022-08-03T14:39:58.346Z,19.52
2022-08-03T14:42:17.181Z,19.44
2022-08-03T14:44:43.831Z,20.18
2022-08-03T14:47:10.875Z,20.74
2022-08-03T14:50:33.121Z,20.17
2022-08-03T14:52:24.606Z,20.50
2022-08-03T14:54:51.255Z,20.49
2022-08-03T14:57:17.896Z,20.97
2022-08-03T14:59:55.776Z,20.95
2022-08-03T15:02:25.030Z,20.98
2022-08-03T15:04:52.429Z,21.35
2022-08-03T15:07:20.486Z,21.94
2022-08-03T15:09:47.372Z,22.10
2022-08-03T15:12:14.033Z,22.06
2022-08-03T15:14:40.669Z,22.27
2022-08-03T15:17:07.780Z,22.01
2022-08-03T15:20:01.172Z,21.18
2022-08-03T15:22:25.209Z,20.59
2022-08-03T15:26:02.248Z,20.80
2022-08-03T15:28:03.540Z,20.34
2022-08-03T15:30:31.476Z,19.38
2022-08-03T15:33:05.407Z,19.42
2022-08-03T15:35:33.138Z,19.68
2022-08-03T15:38:00.000Z,18.32
2022-08-03T15:40:26.665Z,18.43
2022-08-03T15:42:53.217Z,18.99
2022-08-03T15:45:20.439Z,18.34
2022-08-03T15:47:47.164Z,18.47
2022-08-03T15:50:13.738Z,18.16
2022-08-03T15:52:40.297Z,18.29
2022-08-03T15:55:07.478Z,17.53
2022-08-03T15:57:34.013Z,17.08
2022-08-03T16:00:20.947Z,17.61
2022-08-03T16:03:00.628Z,18.10
2022-08-03T16:05:27.962Z,18.42
2022-08-03T16:07:58.574Z,18.49
2022-08-03T16:10:30.900Z,18.73
2022-08-03T16:12:59.005Z,18.96
2022-08-03T16:15:25.794Z,18.75
2022-08-03T16:17:52.462Z,18.83
2022-08-03T16:20:34.099Z,18.28
2022-08-03T16:23:06.972Z,18.67
2022-08-03T16:25:39.411Z,18.39
2022-08-03T16:28:12.796Z,18.75
2022-08-03T16:30:41.984Z,18.49
2022-08-03T16:33:08.964Z,18.13
2022-08-03T16:35:35.935Z,18.29
2022-08-03T16:38:07.858Z,18.16
2022-08-03T16:40:36.388Z,18.11
2022-08-03T16:43:18.094Z,17.83
2022-08-03T16:45:47.198Z,18.20
2022-08-03T16:48:15.342Z,18.19
2022-08-03T16:50:42.116Z,18.79
2022-08-03T16:53:10.091Z,19.00
2022-08-03T16:55:48.688Z,19.59
2022-08-03T16:58:34.401Z,19.45
2022-08-03T17:01:10.949Z,19.57
2022-08-03T17:04:01.412Z,20.41
2022-08-03T17:06:29.869Z,20.43
2022-08-03T17:09:02.044Z,20.70
2022-08-03T17:11:30.225Z,21.38
2022-08-03T17:14:00.153Z,21.63
2022-08-03T17:16:27.514Z,22.05
2022-08-03T17:19:02.318Z,22.34
2022-08-03T17:21:33.177Z,22.53
2022-08-03T17:24:12.845Z,22.91
2022-08-03T17:26:45.905Z,23.71
2022-08-03T17:29:22.994Z,23.69
2022-08-03T17:31:53.975Z,23.90
2022-08-03T17:34:21.714Z,24.00
2022-08-03T17:37:27.101Z,24.20
2022-08-03T17:39:58.581Z,24.19
2022-08-03T17:42:30.520Z,24.88
2022-08-03T17:44:58.117Z,24.35
2022-08-03T17:47:29.125Z,25.01
2022-08-03T17:50:23.366Z,24.92
2022-08-03T17:52:57.295Z,25.53
2022-08-03T17:55:57.137Z,25.68
2022-08-03T17:58:21.001Z,25.76
2022-08-03T18:02:01.806Z,25.97
2022-08-03T18:04:00.357Z,26.58
2022-08-03T18:06:31.632Z,26.49
2022-08-03T18:09:04.860Z,26.38
2022-08-03T18:11:51.374Z,26.75
2022-08-03T18:15:00.903Z,26.70
2022-08-03T18:17:55.145Z,27.48
2022-08-03T18:20:32.280Z,27.70
2022-08-03T18:23:04.943Z,28.02
2022-08-03T18:25:45.764Z,27.67
2022-08-03T18:28:18.936Z,27.96
2022-08-03T18:30:53.734Z,28.16
2022-08-03T18:34:17.829Z,27.90
2022-08-03T18:36:17.341Z,27.91
2022-08-03T18:38:51.015Z,28.09
2022-08-03T18:41:22.275Z,28.45
2022-08-03T18:44:07.181Z,29.52
2022-08-03T18:47:07.080Z,29.40
2022-08-03T18:50:13.624Z,29.57
2022-08-03T18:52:54.526Z,29.43
2022-08-03T18:55:35.457Z,29.54
2022-08-03T18:58:29.909Z,29.41
2022-08-03T19:01:59.782Z,30.45
2022-08-03T19:04:12.829Z,30.73
2022-08-03T19:06:44.919Z,30.91
2022-08-03T19:09:27.813Z,31.04
2022-08-03T19:12:11.717Z,31.35
2022-08-03T19:14:45.836Z,31.30
2022-08-03T19:17:13.188Z,31.36
2022-08-03T19:19:44.950Z,31.42
2022-08-03T19:22:19.700Z,31.70
2022-08-03T19:24:47.852Z,32.26
2022-08-03T19:27:15.942Z,32.53
2022-08-03T19:29:59.740Z,32.13
2022-08-03T19:32:31.649Z,32.46
2022-08-03T19:35:00.504Z,32.12
2022-08-03T19:37:33.270Z,32.08
2022-08-03T19:40:10.353Z,32.33
2022-08-03T19:42:44.102Z,32.99
2022-08-03T19:45:15.258Z,32.43
2022-08-03T19:47:52.386Z,33.52
2022-08-03T19:50:21.066Z,33.88
2022-08-03T19:52:49.750Z,34.59
2022-08-03T19:55:17.739Z,34.71
2022-08-03T19:57:49.309Z,35.15
2022-08-03T20:00:19.625Z,34.97
2022-08-03T20:02:46.539Z,35.78
2022-08-03T20:08:01.921Z,35.92
2022-08-03T20:10:30.205Z,36.33
2022-08-03T20:12:57.613Z,36.57
2022-08-03T20:15:31.783Z,36.58
2022-08-03T20:17:59.100Z,37.01
2022-08-03T20:20:34.453Z,37.88
2022-08-03T20:23:06.630Z,38.06
2022-08-03T20:25:48.864Z,37.74
2022-08-03T20:28:28.181Z,37.56
2022-08-03T20:30:56.421Z,37.73
2022-08-03T20:33:27.816Z,37.64
2022-08-03T20:36:10.289Z,38.28
2022-08-03T20:38:43.754Z,38.60
2022-08-03T20:41:14.149Z,38.71
2022-08-03T20:43:41.760Z,38.61
2022-08-03T20:46:31.378Z,38.64
2022-08-03T20:49:01.379Z,39.41
2022-08-03T20:51:52.678Z,39.17
2022-08-03T20:54:30.651Z,38.81
2022-08-03T20:57:03.765Z,39.48
2022-08-03T20:59:47.175Z,39.22
2022-08-03T21:02:19.895Z,39.32
2022-08-03T21:05:08.445Z,39.27
2022-08-03T21:08:05.519Z,40.38
2022-08-03T21:10:37.922Z,40.12
2022-08-03T21:13:03.419Z,35.68
2022-08-03T21:13:19.040Z,40.54
2022-08-03T21:16:02.560Z,41.59
2022-08-03T21:18:49.319Z,40.87
2022-08-03T21:21:21.055Z,41.13
2022-08-03T21:23:50.574Z,40.91
2022-08-03T21:26:19.683Z,41.11
2022-08-03T21:28:48.530Z,40.70
2022-08-03T21:31:25.604Z,40.74
2022-08-03T21:33:57.960Z,40.55
2022-08-03T21:36:30.647Z,40.78
2022-08-03T21:38:59.400Z,40.73
2022-08-03T21:41:31.390Z,41.45
2022-08-03T21:44:00.320Z,40.91
2022-08-03T21:46:34.097Z,41.29
2022-08-03T21:50:07.749Z,41.00
2022-08-03T21:51:52.320Z,41.31
2022-08-03T21:54:21.429Z,41.04
2022-08-03T21:56:51.176Z,41.27
2022-08-03T21:59:20.034Z,41.20
2022-08-03T22:01:55.418Z,41.22
2022-08-03T22:04:50.767Z,41.41
2022-08-03T22:07:12.457Z,41.60
2022-08-03T22:09:39.405Z,41.35
2022-08-03T22:12:06.547Z,41.61
2022-08-03T22:14:33.768Z,41.75
2022-08-03T22:17:00.736Z,41.75
2022-08-03T22:19:30.145Z,42.05
2022-08-03T22:21:58.287Z,42.25
2022-08-03T22:24:28.737Z,42.51
2022-08-03T22:27:14.297Z,42.08
2022-08-03T22:29:42.177Z,42.57
2022-08-03T22:32:08.847Z,42.28
2022-08-03T22:34:39.162Z,42.54
2022-08-03T22:37:07.000Z,42.71
2022-08-03T22:39:35.311Z,42.36
2022-08-03T22:42:05.250Z,42.93
2022-08-03T22:44:32.362Z,42.96
2022-08-03T22:46:59.294Z,42.74
2022-08-03T22:49:28.346Z,43.16
2022-08-03T22:51:56.307Z,43.22
2022-08-03T22:54:23.378Z,43.70
2022-08-03T22:56:51.184Z,44.29
2022-08-03T22:59:41.199Z,44.01
2022-08-03T23:02:16.012Z,44.58
2022-08-03T23:04:54.825Z,44.50
2022-08-03T23:07:45.758Z,44.39
2022-08-03T23:10:14.143Z,44.64
2022-08-03T23:12:43.057Z,45.08
2022-08-03T23:15:12.425Z,45.59
2022-08-03T23:17:57.500Z,45.15
2022-08-03T23:20:26.486Z,45.20
2022-08-03T23:22:54.499Z,45.05
2022-08-03T23:25:22.152Z,45.50
2022-08-03T23:28:05.421Z,45.35
2022-08-03T23:30:37.097Z,45.76
2022-08-03T23:33:04.472Z,45.61
2022-08-03T23:36:27.931Z,46.02
2022-08-03T23:38:36.979Z,45.66
2022-08-03T23:41:04.924Z,46.11
2022-08-03T23:43:52.421Z,46.58
2022-08-03T23:46:25.919Z,46.53
2022-08-03T23:48:53.826Z,46.27
2022-08-03T23:51:59.045Z,46.23
2022-08-03T23:54:40.892Z,46.95
2022-08-03T23:57:32.738Z,46.77
